Time;durP1;ratioP1;P1;durP2;ratioP2;P2;SDS_P1;SDS_P2;PMS_P1;PMS_P2;Temp;Humidity;BMP_temperature;BMP_pressure;BME280_temperature;BME280_humidity;BME280_pressure;Samples;Min_cycle;Max_cycle;Signal;HPM_P1;HPM_P2
2022/11/18 00:00:31;;;;;;;14.35;5.60;;;;;;;;;;5022486;28;20030;-78
2022/11/18 00:02:57;;;;;;;17.83;6.75;;;;;;;;;;5013915;28;20084;-77
2022/11/18 00:05:23;;;;;;;13.23;5.93;;;;;;;;;;5022922;28;20026;-77
2022/11/18 00:08:10;;;;;;;15.57;5.95;;;;;;;;;;5017757;28;20034;-78
2022/11/18 00:10:37;;;;;;;10.55;5.55;;;;;;;;;;5015545;28;20058;-77
2022/11/18 00:16:09;;;;;;;13.98;6.00;;;;;;;;;;5020157;28;20041;-78
2022/11/18 00:18:53;;;;;;;9.05;5.47;;;;;;;;;;5021331;28;20033;-77
2022/11/18 00:21:19;;;;;;;14.50;5.50;;;;;;;;;;5022581;28;20479;-77
2022/11/18 00:23:48;;;;;;;17.10;6.10;;;;;;;;;;5044893;28;20065;-77
2022/11/18 00:26:16;;;;;;;12.85;5.63;;;;;;;;;;5036020;28;20043;-77
2022/11/18 00:28:42;;;;;;;13.60;5.78;;;;;;;;;;5029878;28;20094;-76
2022/11/18 00:31:12;;;;;;;17.95;6.82;;;;;;;;;;5029169;28;20041;-77
2022/11/18 00:33:39;;;;;;;11.48;6.57;;;;;;;;;;5024895;28;20029;-77
2022/11/18 00:36:06;;;;;;;12.82;6.80;;;;;;;;;;5032256;28;20038;-78
2022/11/18 00:38:32;;;;;;;12.68;6.13;;;;;;;;;;5028336;28;20483;-77
2022/11/18 00:41:02;;;;;;;14.02;6.50;;;;;;;;;;5031279;28;20304;-77
2022/11/18 00:43:30;;;;;;;12.55;6.50;;;;;;;;;;5032269;28;20045;-77
2022/11/18 00:45:56;;;;;;;13.00;6.80;;;;;;;;;;5031351;28;20112;-77
2022/11/18 00:48:22;;;;;;;16.95;7.10;;;;;;;;;;5024525;28;20049;-77
2022/11/18 00:50:49;;;;;;;12.52;6.75;;;;;;;;;;5038572;28;20022;-77
2022/11/18 00:53:16;;;;;;;10.48;6.70;;;;;;;;;;5039688;28;20106;-76
2022/11/18 00:55:42;;;;;;;17.70;7.68;;;;;;;;;;5029769;28;20031;-77
2022/11/18 00:58:08;;;;;;;14.43;7.55;;;;;;;;;;5020770;28;20035;-77
2022/11/18 01:00:35;;;;;;;17.55;7.25;;;;;;;;;;5021436;28;20046;-77
2022/11/18 01:03:01;;;;;;;16.70;7.32;;;;;;;;;;5027364;28;20046;-77
2022/11/18 01:05:27;;;;;;;16.92;6.90;;;;;;;;;;5023438;28;20038;-77
2022/11/18 01:07:53;;;;;;;18.17;7.90;;;;;;;;;;5020774;28;20037;-77
2022/11/18 01:10:38;;;;;;;21.58;8.15;;;;;;;;;;5019576;28;20033;-77
2022/11/18 01:13:20;;;;;;;20.40;7.82;;;;;;;;;;5012981;28;20030;-76
2022/11/18 01:15:53;;;;;;;19.52;8.55;;;;;;;;;;5019307;28;20034;-78
2022/11/18 01:18:21;;;;;;;18.65;8.68;;;;;;;;;;5017389;28;20042;-77
2022/11/18 01:20:48;;;;;;;21.88;8.48;;;;;;;;;;5012895;28;20029;-77
2022/11/18 01:23:14;;;;;;;22.85;8.73;;;;;;;;;;5015652;28;20045;-77
2022/11/18 01:25:41;;;;;;;18.40;9.02;;;;;;;;;;5018494;28;20026;-77
2022/11/18 01:28:08;;;;;;;21.08;8.98;;;;;;;;;;5010631;28;20030;-77
2022/11/18 01:30:37;;;;;;;22.17;10.05;;;;;;;;;;5013437;28;20060;-78
2022/11/18 01:33:04;;;;;;;23.67;9.98;;;;;;;;;;5009255;28;20129;-78
2022/11/18 01:35:48;;;;;;;22.35;8.85;;;;;;;;;;5018078;28;20398;-77
2022/11/18 01:38:15;;;;;;;23.00;9.02;;;;;;;;;;5009819;28;20132;-78
2022/11/18 01:40:42;;;;;;;20.45;9.55;;;;;;;;;;5011966;28;20038;-78
2022/11/18 01:43:13;;;;;;;22.23;9.38;;;;;;;;;;5014097;28;20034;-76
2022/11/18 01:45:57;;;;;;;22.75;9.98;;;;;;;;;;5022461;28;20034;-76
2022/11/18 01:48:25;;;;;;;20.58;10.20;;;;;;;;;;5014491;28;20399;-76
2022/11/18 01:51:10;;;;;;;23.75;11.02;;;;;;;;;;5013815;28;20037;-77
2022/11/18 01:53:45;;;;;;;28.85;11.82;;;;;;;;;;5010872;28;20473;-77
2022/11/18 01:56:13;;;;;;;30.10;12.68;;;;;;;;;;5020541;28;20087;-77
2022/11/18 01:58:49;;;;;;;26.92;11.93;;;;;;;;;;5024155;28;20014;-77
2022/11/18 02:01:15;;;;;;;21.85;11.70;;;;;;;;;;5020573;28;20011;-76
2022/11/18 02:03:41;;;;;;;21.67;11.10;;;;;;;;;;5025084;28;20025;-77
2022/11/18 02:06:09;;;;;;;29.15;12.30;;;;;;;;;;5032805;28;20031;-77
2022/11/18 02:08:36;;;;;;;30.83;13.30;;;;;;;;;;5022622;28;20037;-76
2022/11/18 02:11:03;;;;;;;20.25;11.68;;;;;;;;;;5035093;28;20085;-77
2022/11/18 02:13:31;;;;;;;31.35;11.82;;;;;;;;;;5027292;28;20050;-76
2022/11/18 02:16:00;;;;;;;29.30;13.13;;;;;;;;;;5036140;28;20045;-76
2022/11/18 02:18:29;;;;;;;25.52;11.45;;;;;;;;;;5022739;28;20057;-76
2022/11/18 02:21:00;;;;;;;26.92;12.05;;;;;;;;;;5028441;28;20025;-76
2022/11/18 02:23:32;;;;;;;24.80;12.15;;;;;;;;;;5026593;28;20053;-76
2022/11/18 02:25:58;;;;;;;29.15;13.40;;;;;;;;;;5029703;28;20026;-76
2022/11/18 02:28:45;;;;;;;26.55;11.73;;;;;;;;;;5027086;28;20042;-76
2022/11/18 02:31:14;;;;;;;27.83;11.98;;;;;;;;;;5023693;28;20029;-77
2022/11/18 02:33:50;;;;;;;27.83;12.15;;;;;;;;;;5020140;28;20089;-76
2022/11/18 02:36:18;;;;;;;23.52;11.52;;;;;;;;;;5014867;28;20044;-76
2022/11/18 02:38:48;;;;;;;35.50;12.45;;;;;;;;;;5012489;28;20523;-77
2022/11/18 02:41:15;;;;;;;26.33;13.38;;;;;;;;;;5018544;28;20030;-77
2022/11/18 02:43:47;;;;;;;28.80;13.25;;;;;;;;;;5013330;28;20442;-76
2022/11/18 02:46:15;;;;;;;28.50;13.13;;;;;;;;;;5013886;28;20026;-76
2022/11/18 02:48:44;;;;;;;29.02;13.82;;;;;;;;;;5012437;28;20496;-76
2022/11/18 02:51:12;;;;;;;25.23;12.43;;;;;;;;;;5019911;28;20553;-76
2022/11/18 02:53:40;;;;;;;26.65;12.65;;;;;;;;;;5004250;28;20460;-76
2022/11/18 02:56:08;;;;;;;28.38;13.63;;;;;;;;;;5013357;28;20044;-78
2022/11/18 02:58:34;;;;;;;28.98;13.57;;;;;;;;;;5015499;28;20029;-76
2022/11/18 03:01:00;;;;;;;31.77;14.00;;;;;;;;;;5021428;28;20463;-76
2022/11/18 03:03:46;;;;;;;28.40;14.13;;;;;;;;;;5012011;28;20042;-75
2022/11/18 03:06:15;;;;;;;32.97;14.70;;;;;;;;;;5021967;28;20034;-76
2022/11/18 03:11:51;;;;;;;35.38;14.60;;;;;;;;;;5010193;28;20581;-76
2022/11/18 03:14:17;;;;;;;37.22;15.00;;;;;;;;;;5010293;28;20034;-76
2022/11/18 03:17:03;;;;;;;43.40;15.73;;;;;;;;;;5014062;28;20034;-76
2022/11/18 03:19:29;;;;;;;37.08;15.77;;;;;;;;;;5018998;28;20536;-76
2022/11/18 03:21:58;;;;;;;34.72;15.02;;;;;;;;;;5020908;28;20014;-75
2022/11/18 03:24:28;;;;;;;33.65;15.13;;;;;;;;;;5024404;28;20061;-76
2022/11/18 03:26:58;;;;;;;31.77;15.60;;;;;;;;;;5029691;28;20009;-76
2022/11/18 03:29:35;;;;;;;38.55;16.38;;;;;;;;;;5025382;28;20034;-77
2022/11/18 03:32:13;;;;;;;37.25;16.42;;;;;;;;;;5029012;28;20056;-78
2022/11/18 03:37:44;;;;;;;37.65;16.92;;;;;;;;;;5036528;28;20056;-78
2022/11/18 03:40:29;;;;;;;43.95;16.77;;;;;;;;;;5029334;28;20030;-77
2022/11/18 03:42:59;;;;;;;36.22;17.55;;;;;;;;;;5024143;28;20071;-76
2022/11/18 03:45:28;;;;;;;40.67;17.58;;;;;;;;;;5032615;28;20026;-76
2022/11/18 03:47:57;;;;;;;41.10;17.88;;;;;;;;;;5021287;28;20038;-75
2022/11/18 03:50:37;;;;;;;39.50;18.90;;;;;;;;;;5020617;28;20053;-76
2022/11/18 03:53:05;;;;;;;42.30;18.30;;;;;;;;;;5013590;28;20034;-76
2022/11/18 03:59:01;;;;;;;47.70;18.83;;;;;;;;;;5001158;28;20104;-75
2022/11/18 04:01:31;;;;;;;40.88;17.58;;;;;;;;;;5004394;28;20431;-78
2022/11/18 04:03:57;;;;;;;41.00;18.30;;;;;;;;;;5006107;28;20052;-77
2022/11/18 04:06:46;;;;;;;44.72;18.95;;;;;;;;;;5014454;28;20237;-77
2022/11/18 04:09:32;;;;;;;47.40;18.75;;;;;;;;;;5013434;28;20049;-76
2022/11/18 04:12:02;;;;;;;43.60;18.73;;;;;;;;;;5016310;28;20091;-76
2022/11/18 04:17:32;;;;;;;56.60;20.90;;;;;;;;;;5019692;28;20065;-76
2022/11/18 04:19:58;;;;;;;55.47;20.17;;;;;;;;;;5013225;28;20507;-75
2022/11/18 04:22:24;;;;;;;45.92;19.95;;;;;;;;;;5023973;28;20029;-76
2022/11/18 04:24:50;;;;;;;54.03;20.77;;;;;;;;;;5019380;28;20039;-76
2022/11/18 04:27:16;;;;;;;51.00;21.17;;;;;;;;;;5028388;28;20032;-76
2022/11/18 04:29:42;;;;;;;55.10;22.98;;;;;;;;;;5018949;28;20105;-77
2022/11/18 04:32:08;;;;;;;53.47;21.75;;;;;;;;;;5019717;28;20028;-76
2022/11/18 04:34:36;;;;;;;58.13;22.23;;;;;;;;;;5023981;28;20026;-76
2022/11/18 04:37:03;;;;;;;58.90;23.08;;;;;;;;;;5030187;28;20040;-77
2022/11/18 04:39:47;;;;;;;54.70;22.48;;;;;;;;;;5022146;28;20026;-76
2022/11/18 04:42:13;;;;;;;50.78;21.58;;;;;;;;;;5036323;28;20029;-78
2022/11/18 04:44:41;;;;;;;52.50;21.60;;;;;;;;;;5020605;28;20384;-77
2022/11/18 04:47:07;;;;;;;60.40;23.55;;;;;;;;;;5035784;28;20022;-78
2022/11/18 04:49:34;;;;;;;55.42;23.00;;;;;;;;;;5044105;28;20033;-77
2022/11/18 04:52:02;;;;;;;62.80;23.80;;;;;;;;;;5031893;28;20030;-77
2022/11/18 04:54:28;;;;;;;61.10;23.98;;;;;;;;;;5024924;28;20034;-77
2022/11/18 04:56:54;;;;;;;60.17;23.67;;;;;;;;;;5025058;28;20068;-77
2022/11/18 04:59:22;;;;;;;60.28;24.08;;;;;;;;;;5015203;28;20435;-77
2022/11/18 05:04:51;;;;;;;69.50;22.63;;;;;;;;;;5014669;28;20153;-77
2022/11/18 05:07:18;;;;;;;63.75;23.02;;;;;;;;;;5013520;28;20029;-78
2022/11/18 05:09:43;;;;;;;52.08;22.25;;;;;;;;;;5010257;28;20494;-78
2022/11/18 05:14:58;;;;;;;52.75;22.13;;;;;;;;;;5023419;28;20402;-75
2022/11/18 05:17:24;;;;;;;58.05;22.50;;;;;;;;;;5013461;28;20034;-75
2022/11/18 05:19:50;;;;;;;53.60;23.33;;;;;;;;;;5019242;28;20038;-76
2022/11/18 05:22:16;;;;;;;59.50;22.65;;;;;;;;;;5025316;28;20040;-77
2022/11/18 05:24:42;;;;;;;64.28;23.33;;;;;;;;;;5032685;28;20042;-76
2022/11/18 05:27:10;;;;;;;56.75;22.83;;;;;;;;;;5015992;28;20475;-76
2022/11/18 05:29:38;;;;;;;56.70;22.83;;;;;;;;;;5020166;28;20154;-77
2022/11/18 05:32:05;;;;;;;63.03;22.65;;;;;;;;;;5010749;28;20045;-78
2022/11/18 05:34:31;;;;;;;46.88;22.88;;;;;;;;;;5016431;28;20072;-77
2022/11/18 05:36:57;;;;;;;59.20;23.85;;;;;;;;;;5038595;28;20037;-77
2022/11/18 05:39:23;;;;;;;54.92;23.33;;;;;;;;;;5008493;28;20065;-77
2022/11/18 05:44:52;;;;;;;51.55;22.13;;;;;;;;;;5022148;28;20112;-77
2022/11/18 05:47:18;;;;;;;59.88;22.75;;;;;;;;;;5033424;28;20037;-76
2022/11/18 05:49:44;;;;;;;56.55;22.60;;;;;;;;;;5024714;28;20041;-77
2022/11/18 05:52:10;;;;;;;52.40;22.27;;;;;;;;;;5028634;28;20108;-77
2022/11/18 05:54:41;;;;;;;56.20;21.13;;;;;;;;;;5040272;28;20412;-77
2022/11/18 05:57:07;;;;;;;51.38;21.45;;;;;;;;;;5036218;28;20037;-77
2022/11/18 05:59:33;;;;;;;63.70;22.27;;;;;;;;;;5043570;28;20013;-76
2022/11/18 06:02:04;;;;;;;47.70;20.58;;;;;;;;;;5039268;28;20068;-77
2022/11/18 06:04:37;;;;;;;62.33;22.85;;;;;;;;;;5021840;28;20553;-76
2022/11/18 06:07:05;;;;;;;48.15;19.88;;;;;;;;;;5023483;28;20042;-77
2022/11/18 06:09:34;;;;;;;48.47;20.30;;;;;;;;;;5017193;28;20033;-77
2022/11/18 06:12:01;;;;;;;49.83;20.98;;;;;;;;;;5025548;28;20550;-76
2022/11/18 06:14:31;;;;;;;49.75;20.25;;;;;;;;;;5020497;28;20045;-77
2022/11/18 06:17:00;;;;;;;53.28;20.15;;;;;;;;;;5010185;28;20026;-78
2022/11/18 06:19:26;;;;;;;47.85;20.02;;;;;;;;;;5012917;28;20052;-77
2022/11/18 06:21:52;;;;;;;44.10;19.52;;;;;;;;;;5014932;28;20026;-77
2022/11/18 06:24:18;;;;;;;49.88;21.55;;;;;;;;;;5016666;28;20045;-77
2022/11/18 06:26:45;;;;;;;40.67;18.67;;;;;;;;;;5003261;28;20444;-76
2022/11/18 06:29:13;;;;;;;44.70;19.40;;;;;;;;;;5012619;28;20096;-78
2022/11/18 06:31:39;;;;;;;42.95;19.27;;;;;;;;;;5009192;28;20103;-76
2022/11/18 06:34:05;;;;;;;39.97;18.88;;;;;;;;;;5006082;28;20044;-76
2022/11/18 06:36:49;;;;;;;45.38;18.63;;;;;;;;;;5019156;28;20398;-76
2022/11/18 06:39:15;;;;;;;41.13;18.38;;;;;;;;;;5009415;28;20030;-76
2022/11/18 06:41:41;;;;;;;42.80;17.88;;;;;;;;;;5025624;28;20034;-76
2022/11/18 06:44:07;;;;;;;40.97;17.33;;;;;;;;;;5010664;28;20184;-76
2022/11/18 06:49:18;;;;;;;37.25;17.20;;;;;;;;;;5023428;28;20683;-76
2022/11/18 06:51:44;;;;;;;42.78;18.40;;;;;;;;;;5028571;28;20124;-76
2022/11/18 06:54:10;;;;;;;48.58;17.95;;;;;;;;;;5009946;28;20164;-77
2022/11/18 06:56:36;;;;;;;34.35;16.50;;;;;;;;;;5019377;28;20030;-77
2022/11/18 06:59:02;;;;;;;42.92;16.88;;;;;;;;;;5016664;28;20471;-76
2022/11/18 07:01:29;;;;;;;38.13;17.17;;;;;;;;;;5009232;28;20022;-76
2022/11/18 07:03:57;;;;;;;42.05;18.23;;;;;;;;;;5018955;28;20620;-76
2022/11/18 07:06:24;;;;;;;39.47;18.20;;;;;;;;;;5001166;28;20045;-76
2022/11/18 07:08:51;;;;;;;41.85;16.23;;;;;;;;;;5023481;28;20030;-76
2022/11/18 07:11:18;;;;;;;36.70;16.33;;;;;;;;;;5001679;28;20022;-76
2022/11/18 07:13:45;;;;;;;37.03;16.55;;;;;;;;;;5015241;28;20034;-76
2022/11/18 07:16:12;;;;;;;37.35;16.42;;;;;;;;;;5008406;28;20459;-75
2022/11/18 07:18:42;;;;;;;41.88;16.38;;;;;;;;;;5006652;28;20030;-76
2022/11/18 07:21:10;;;;;;;33.93;15.77;;;;;;;;;;5015736;28;20077;-74
2022/11/18 07:23:37;;;;;;;32.33;16.65;;;;;;;;;;5015142;28;20288;-76
2022/11/18 07:26:03;;;;;;;33.38;16.33;;;;;;;;;;4997260;28;20119;-76
2022/11/18 07:28:30;;;;;;;42.13;16.48;;;;;;;;;;5017866;28;20069;-75
2022/11/18 07:31:02;;;;;;;40.47;16.15;;;;;;;;;;5020099;28;20041;-77
2022/11/18 07:33:28;;;;;;;38.83;15.70;;;;;;;;;;5016125;28;20034;-76
2022/11/18 07:35:55;;;;;;;40.30;15.68;;;;;;;;;;5010785;28;20069;-77
2022/11/18 07:38:21;;;;;;;35.40;16.45;;;;;;;;;;5016132;28;20086;-77
2022/11/18 07:40:47;;;;;;;30.85;15.18;;;;;;;;;;5022587;28;20049;-80
2022/11/18 07:43:13;;;;;;;30.50;15.10;;;;;;;;;;5022004;28;20026;-76
2022/11/18 07:45:39;;;;;;;32.95;13.70;;;;;;;;;;5016654;28;20117;-76
2022/11/18 07:48:06;;;;;;;33.88;14.85;;;;;;;;;;5017795;28;20085;-76
2022/11/18 07:50:32;;;;;;;39.40;15.07;;;;;;;;;;5041025;28;20050;-76
2022/11/18 07:52:58;;;;;;;33.28;14.98;;;;;;;;;;5037730;28;20022;-77
2022/11/18 07:55:24;;;;;;;34.60;14.07;;;;;;;;;;5027246;28;20129;-76
2022/11/18 07:57:50;;;;;;;28.50;13.40;;;;;;;;;;5030322;28;20038;-88
2022/11/18 08:00:18;;;;;;;25.30;12.82;;;;;;;;;;5025092;28;20042;-76
2022/11/18 08:02:44;;;;;;;27.38;12.43;;;;;;;;;;5009056;28;20074;-76
2022/11/18 08:05:11;;;;;;;30.00;12.30;;;;;;;;;;5016050;28;20037;-76
2022/11/18 08:07:37;;;;;;;28.58;13.13;;;;;;;;;;5026250;28;20037;-76
2022/11/18 08:10:03;;;;;;;32.25;12.65;;;;;;;;;;5017580;28;20088;-75
2022/11/18 08:12:29;;;;;;;28.00;12.40;;;;;;;;;;5004450;28;20032;-76
2022/11/18 08:14:56;;;;;;;32.33;13.18;;;;;;;;;;5020271;28;20061;-75
2022/11/18 08:17:22;;;;;;;25.45;12.45;;;;;;;;;;5019623;28;20029;-76
2022/11/18 08:19:48;;;;;;;25.20;11.95;;;;;;;;;;5016622;28;20042;-76
2022/11/18 08:22:15;;;;;;;23.80;11.40;;;;;;;;;;5028617;28;20557;-76
2022/11/18 08:24:41;;;;;;;23.33;11.07;;;;;;;;;;5016664;28;20018;-76
2022/11/18 08:27:07;;;;;;;29.23;11.88;;;;;;;;;;5000034;28;20128;-76
2022/11/18 08:29:33;;;;;;;20.88;10.82;;;;;;;;;;5024686;28;20480;-76
2022/11/18 08:32:01;;;;;;;26.73;11.52;;;;;;;;;;5006428;28;20034;-76
2022/11/18 08:34:27;;;;;;;23.50;11.25;;;;;;;;;;5002137;28;20038;-77
2022/11/18 08:36:53;;;;;;;23.55;12.75;;;;;;;;;;5022553;28;20052;-77
2022/11/18 08:39:19;;;;;;;20.58;12.07;;;;;;;;;;5013904;28;20038;-77
2022/11/18 08:41:46;;;;;;;21.30;9.95;;;;;;;;;;5018763;28;20084;-77
2022/11/18 08:44:14;;;;;;;18.73;10.13;;;;;;;;;;5021378;28;20030;-77
2022/11/18 08:46:40;;;;;;;19.17;9.80;;;;;;;;;;5016267;28;20036;-77
2022/11/18 08:49:06;;;;;;;18.48;9.20;;;;;;;;;;5027079;28;20030;-76
2022/11/18 08:51:32;;;;;;;17.38;8.65;;;;;;;;;;5017588;28;20093;-77
2022/11/18 08:53:58;;;;;;;22.10;9.45;;;;;;;;;;5017195;28;20515;-74
2022/11/18 08:56:24;;;;;;;16.45;9.15;;;;;;;;;;5025958;28;20033;-77
2022/11/18 08:58:51;;;;;;;19.50;9.20;;;;;;;;;;5018782;28;20110;-76
2022/11/18 09:01:17;;;;;;;25.10;9.82;;;;;;;;;;5026706;28;20040;-76
2022/11/18 09:03:43;;;;;;;17.65;8.35;;;;;;;;;;5036909;28;20045;-76
2022/11/18 09:06:12;;;;;;;18.60;10.18;;;;;;;;;;5013413;28;20030;-76
2022/11/18 09:08:39;;;;;;;20.55;9.15;;;;;;;;;;5011761;28;20029;-77
2022/11/18 09:11:07;;;;;;;24.70;9.63;;;;;;;;;;5001447;28;20030;-76
2022/11/18 09:13:33;;;;;;;22.83;9.57;;;;;;;;;;4994562;28;20117;-77
2022/11/18 09:15:59;;;;;;;18.65;8.80;;;;;;;;;;4994453;28;20448;-76
2022/11/18 09:18:26;;;;;;;18.55;9.30;;;;;;;;;;5001670;28;20045;-76
2022/11/18 09:20:56;;;;;;;23.38;9.98;;;;;;;;;;4998210;28;20604;-77
2022/11/18 09:23:23;;;;;;;21.42;10.73;;;;;;;;;;5014037;28;20340;-77
2022/11/18 09:25:49;;;;;;;18.15;9.70;;;;;;;;;;5013854;28;20029;-78
2022/11/18 09:28:15;;;;;;;20.25;10.88;;;;;;;;;;5000534;28;20030;-76
2022/11/18 09:30:41;;;;;;;20.52;10.18;;;;;;;;;;5012355;28;20045;-77
2022/11/18 09:33:07;;;;;;;19.95;10.73;;;;;;;;;;5013696;28;20034;-76
2022/11/18 09:35:33;;;;;;;22.27;10.10;;;;;;;;;;5015820;28;20030;-76
2022/11/18 09:37:59;;;;;;;17.98;8.98;;;;;;;;;;5016547;28;20038;-77
2022/11/18 09:40:26;;;;;;;22.42;9.40;;;;;;;;;;5016826;28;20125;-75
2022/11/18 09:42:55;;;;;;;14.75;8.77;;;;;;;;;;4996103;28;20038;-76
2022/11/18 09:45:23;;;;;;;23.05;7.95;;;;;;;;;;5002261;28;20436;-75
2022/11/18 09:47:49;;;;;;;19.70;8.02;;;;;;;;;;5003433;28;20029;-78
2022/11/18 09:50:18;;;;;;;21.33;8.13;;;;;;;;;;5002656;28;20451;-76
2022/11/18 09:52:50;;;;;;;19.70;7.93;;;;;;;;;;5007628;28;20038;-76
2022/11/18 09:55:18;;;;;;;20.20;7.40;;;;;;;;;;5024122;28;20088;-75
2022/11/18 09:57:46;;;;;;;16.98;7.00;;;;;;;;;;5027177;28;20053;-77
2022/11/18 10:00:16;;;;;;;23.35;7.60;;;;;;;;;;5022340;28;20030;-75
2022/11/18 10:02:48;;;;;;;21.40;8.25;;;;;;;;;;5029095;28;20100;-76
2022/11/18 10:05:14;;;;;;;17.83;7.18;;;;;;;;;;5037426;28;20060;-75
2022/11/18 10:07:43;;;;;;;11.63;6.88;;;;;;;;;;5026733;28;20030;-75
2022/11/18 10:10:16;;;;;;;15.43;6.90;;;;;;;;;;5035409;28;20014;-77
2022/11/18 10:12:49;;;;;;;13.30;6.68;;;;;;;;;;5030251;28;20018;-75
2022/11/18 10:15:15;;;;;;;14.70;7.40;;;;;;;;;;5034354;28;20086;-77
2022/11/18 10:17:54;;;;;;;16.17;7.28;;;;;;;;;;5033407;28;20112;-78
2022/11/18 10:20:20;;;;;;;15.43;7.40;;;;;;;;;;5035227;28;20033;-76
2022/11/18 10:22:52;;;;;;;17.58;6.95;;;;;;;;;;5034711;28;20022;-75
2022/11/18 10:25:18;;;;;;;16.38;8.40;;;;;;;;;;5020397;28;20109;-76
2022/11/18 10:27:45;;;;;;;18.13;7.40;;;;;;;;;;5024540;28;20041;-79
2022/11/18 10:30:14;;;;;;;17.13;6.80;;;;;;;;;;5020381;28;20049;-76
2022/11/18 10:32:55;;;;;;;12.55;6.30;;;;;;;;;;5015934;28;20048;-79
2022/11/18 10:35:29;;;;;;;17.60;6.80;;;;;;;;;;5023889;28;20034;-78
2022/11/18 10:38:00;;;;;;;13.27;6.75;;;;;;;;;;5013976;28;20030;-77
2022/11/18 10:43:12;;;;;;;13.60;6.10;;;;;;;;;;5020311;28;20325;-77
2022/11/18 10:45:39;;;;;;;16.15;6.38;;;;;;;;;;5014795;28;20537;-75
2022/11/18 10:48:07;;;;;;;11.48;6.22;;;;;;;;;;5011556;28;20566;-76
2022/11/18 10:50:33;;;;;;;15.85;6.38;;;;;;;;;;5023006;28;20038;-76
2022/11/18 10:52:59;;;;;;;17.45;6.38;;;;;;;;;;5010637;28;20022;-76
2022/11/18 10:55:28;;;;;;;18.40;6.22;;;;;;;;;;5013412;28;20499;-76
2022/11/18 10:58:21;;;;;;;18.17;6.30;;;;;;;;;;5011847;28;20029;-76
2022/11/18 11:00:48;;;;;;;14.38;5.90;;;;;;;;;;5006051;28;20072;-76
2022/11/18 11:03:20;;;;;;;12.82;6.00;;;;;;;;;;5010066;28;20042;-76
2022/11/18 11:05:46;;;;;;;16.30;6.95;;;;;;;;;;5006336;28;20033;-76
2022/11/18 11:08:19;;;;;;;13.05;6.63;;;;;;;;;;5010178;28;20400;-76
2022/11/18 11:10:55;;;;;;;15.00;6.10;;;;;;;;;;5014907;28;20029;-76
2022/11/18 11:13:23;;;;;;;12.32;6.32;;;;;;;;;;5020009;28;20038;-76
2022/11/18 11:15:51;;;;;;;15.40;7.20;;;;;;;;;;5021166;28;20032;-77
2022/11/18 11:21:12;;;;;;;18.30;7.57;;;;;;;;;;5019569;28;20533;-75
2022/11/18 11:23:38;;;;;;;16.55;7.68;;;;;;;;;;5010829;28;20038;-75
2022/11/18 11:26:07;;;;;;;15.63;7.63;;;;;;;;;;5009360;28;20494;-75
2022/11/18 11:28:36;;;;;;;17.52;7.80;;;;;;;;;;5017300;28;20539;-75
2022/11/18 11:31:08;;;;;;;15.73;8.32;;;;;;;;;;5025300;28;20026;-76
2022/11/18 11:33:38;;;;;;;16.42;8.20;;;;;;;;;;5013297;28;20128;-76
2022/11/18 11:36:20;;;;;;;16.80;8.18;;;;;;;;;;5013653;28;20061;-76
2022/11/18 11:38:58;;;;;;;21.55;9.13;;;;;;;;;;5018062;28;20026;-78
2022/11/18 11:41:30;;;;;;;17.88;8.63;;;;;;;;;;5012509;28;20335;-76
2022/11/18 11:44:05;;;;;;;23.40;9.93;;;;;;;;;;5014183;28;20514;-77
2022/11/18 11:46:31;;;;;;;19.85;9.63;;;;;;;;;;5015240;28;20556;-76
2022/11/18 11:49:16;;;;;;;18.20;8.70;;;;;;;;;;5016836;28;20143;-76
2022/11/18 11:51:49;;;;;;;14.15;8.95;;;;;;;;;;5008978;28;20045;-75
2022/11/18 11:54:21;;;;;;;19.77;9.80;;;;;;;;;;5010909;28;20079;-76
2022/11/18 11:56:50;;;;;;;21.63;10.82;;;;;;;;;;5011262;28;20048;-78
2022/11/18 11:59:26;;;;;;;21.63;9.50;;;;;;;;;;5010337;28;20037;-77
2022/11/18 12:01:57;;;;;;;15.88;9.00;;;;;;;;;;4997774;28;20030;-77
2022/11/18 12:04:28;;;;;;;22.08;9.20;;;;;;;;;;4992697;28;20050;-77
2022/11/18 12:06:55;;;;;;;21.80;10.75;;;;;;;;;;5010056;28;20029;-76
2022/11/18 12:09:35;;;;;;;27.52;10.40;;;;;;;;;;5024389;28;20028;-76
2022/11/18 12:12:33;;;;;;;18.83;10.73;;;;;;;;;;5021978;28;20034;-77
2022/11/18 12:14:57;;;;;;;16.30;10.13;;;;;;;;;;5016907;28;20132;-76
2022/11/18 12:17:42;;;;;;;15.93;10.27;;;;;;;;;;5026840;28;20120;-76
2022/11/18 12:20:27;;;;;;;20.65;11.30;;;;;;;;;;5022124;28;20033;-76
2022/11/18 12:23:10;;;;;;;17.73;10.43;;;;;;;;;;5024875;28;20041;-78
2022/11/18 12:25:55;;;;;;;14.82;9.98;;;;;;;;;;5015714;28;20038;-76
2022/11/18 12:28:28;;;;;;;20.30;11.48;;;;;;;;;;5040254;28;20038;-77
2022/11/18 12:31:12;;;;;;;23.75;11.85;;;;;;;;;;5035802;28;20022;-78
2022/11/18 12:33:46;;;;;;;18.98;10.27;;;;;;;;;;5040625;28;20049;-77
2022/11/18 12:36:32;;;;;;;17.85;10.85;;;;;;;;;;5032377;28;20358;-77
2022/11/18 12:39:04;;;;;;;18.08;11.85;;;;;;;;;;5035402;28;20041;-78
2022/11/18 12:44:42;;;;;;;21.80;13.52;;;;;;;;;;5044753;28;20048;-77
2022/11/18 12:47:34;;;;;;;22.33;14.02;;;;;;;;;;5033843;28;20507;-77
2022/11/18 12:50:08;;;;;;;26.85;15.25;;;;;;;;;;5018239;28;20130;-78
2022/11/18 12:52:34;;;;;;;21.85;14.70;;;;;;;;;;5029195;28;20101;-77
2022/11/18 12:55:02;;;;;;;20.85;14.35;;;;;;;;;;5021750;28;20034;-77
2022/11/18 12:57:32;;;;;;;22.70;15.55;;;;;;;;;;5035000;28;20092;-77
2022/11/18 12:59:58;;;;;;;28.60;16.23;;;;;;;;;;5010612;28;20021;-77
2022/11/18 13:02:28;;;;;;;24.98;15.43;;;;;;;;;;4999806;28;20030;-78
2022/11/18 13:05:11;;;;;;;24.73;16.00;;;;;;;;;;4997559;28;20038;-77
2022/11/18 13:10:26;;;;;;;27.30;15.63;;;;;;;;;;4996521;28;20077;-78
2022/11/18 13:12:53;;;;;;;28.55;17.13;;;;;;;;;;4995785;28;20031;-77
2022/11/18 13:18:06;;;;;;;26.65;16.17;;;;;;;;;;5000297;28;20092;-77
2022/11/18 13:20:51;;;;;;;22.95;15.73;;;;;;;;;;5003923;28;20129;-76
2022/11/18 13:26:13;;;;;;;29.27;16.88;;;;;;;;;;5005718;28;20423;-76
2022/11/18 13:28:44;;;;;;;26.23;17.35;;;;;;;;;;5008460;28;20129;-76
2022/11/18 13:31:28;;;;;;;29.75;16.80;;;;;;;;;;4998867;28;20096;-76
2022/11/18 13:33:54;;;;;;;27.77;17.25;;;;;;;;;;5002256;28;20041;-76
2022/11/18 13:36:22;;;;;;;24.15;16.50;;;;;;;;;;5001437;28;20479;-76
2022/11/18 13:39:01;;;;;;;26.35;17.38;;;;;;;;;;5020439;28;20030;-76
2022/11/18 13:41:31;;;;;;;28.25;16.92;;;;;;;;;;4999918;28;20228;-77
2022/11/18 13:44:11;;;;;;;24.50;17.27;;;;;;;;;;5002643;28;20038;-77
2022/11/18 13:46:39;;;;;;;24.20;16.63;;;;;;;;;;5007667;28;20107;-76
2022/11/18 13:49:06;;;;;;;25.42;16.40;;;;;;;;;;5000389;28;20122;-77
2022/11/18 13:51:32;;;;;;;26.73;16.00;;;;;;;;;;5009860;28;20045;-77
2022/11/18 13:53:58;;;;;;;26.98;16.00;;;;;;;;;;5010172;28;20030;-77
2022/11/18 13:56:29;;;;;;;23.02;16.88;;;;;;;;;;5012865;28;20487;-77
2022/11/18 13:58:55;;;;;;;;;;;;;;;;;;5000224;28;20030;-77
2022/11/18 14:01:23;;;;;;;30.23;16.50;;;;;;;;;;4994549;28;20316;-77
2022/11/18 14:03:52;;;;;;;26.60;16.98;;;;;;;;;;4993603;28;20120;-77
2022/11/18 14:06:27;;;;;;;27.75;16.27;;;;;;;;;;4993751;28;20098;-77
2022/11/18 14:09:06;;;;;;;21.20;16.30;;;;;;;;;;4993157;28;20030;-77
2022/11/18 14:11:36;;;;;;;29.88;17.85;;;;;;;;;;5011016;28;20108;-75
2022/11/18 14:14:03;;;;;;;32.95;17.80;;;;;;;;;;5009467;28;20022;-76
2022/11/18 14:16:36;;;;;;;26.42;18.45;;;;;;;;;;5037206;28;20132;-77
2022/11/18 14:19:02;;;;;;;29.33;17.95;;;;;;;;;;5004653;28;20027;-77
2022/11/18 14:21:30;;;;;;;29.38;18.27;;;;;;;;;;5005952;28;20449;-77
2022/11/18 14:23:56;;;;;;;33.00;19.25;;;;;;;;;;5018287;28;20038;-78
2022/11/18 14:26:30;;;;;;;27.65;19.13;;;;;;;;;;5016941;28;20041;-77
2022/11/18 14:28:58;;;;;;;27.15;17.90;;;;;;;;;;5013740;28;20062;-76
2022/11/18 14:31:26;;;;;;;32.92;18.77;;;;;;;;;;5004592;28;20015;-77
2022/11/18 14:34:10;;;;;;;30.20;18.70;;;;;;;;;;5022896;28;20057;-81
2022/11/18 14:36:36;;;;;;;28.45;17.77;;;;;;;;;;5031278;28;20041;-77
2022/11/18 14:39:11;;;;;;;30.23;18.58;;;;;;;;;;5040240;28;20093;-79
2022/11/18 14:41:47;;;;;;;32.38;19.42;;;;;;;;;;5021490;28;20018;-78
2022/11/18 14:44:13;;;;;;;31.88;20.33;;;;;;;;;;5032941;28;20025;-76
2022/11/18 14:46:39;;;;;;;29.48;18.63;;;;;;;;;;5031008;28;20030;-76
2022/11/18 14:49:09;;;;;;;28.80;18.20;;;;;;;;;;5041550;28;20018;-77
2022/11/18 14:51:35;;;;;;;28.98;16.42;;;;;;;;;;5016228;28;20042;-77
2022/11/18 14:54:01;;;;;;;32.88;17.98;;;;;;;;;;5028257;28;20065;-77
2022/11/18 14:56:31;;;;;;;28.33;17.20;;;;;;;;;;5009882;28;20029;-76
2022/11/18 14:58:58;;;;;;;30.35;19.75;;;;;;;;;;5008885;28;20037;-78
2022/11/18 15:01:24;;;;;;;29.08;18.52;;;;;;;;;;5005799;28;20030;-77
2022/11/18 15:03:51;;;;;;;30.35;18.10;;;;;;;;;;5014428;28;20031;-79
2022/11/18 15:06:18;;;;;;;34.22;18.02;;;;;;;;;;5016254;28;20117;-78
2022/11/18 15:08:45;;;;;;;27.30;19.05;;;;;;;;;;5018076;28;20069;-77
2022/11/18 15:11:11;;;;;;;31.75;19.42;;;;;;;;;;5019809;28;20025;-78
2022/11/18 15:13:39;;;;;;;38.35;20.30;;;;;;;;;;5003919;28;20479;-77
2022/11/18 15:16:14;;;;;;;29.73;20.00;;;;;;;;;;5005359;28;20030;-77
2022/11/18 15:18:40;;;;;;;28.90;20.55;;;;;;;;;;5002019;28;20049;-77